Página principal
METAR-TAF:

METAR-TAF

Aeroportos :

Aeroporto Francisco Sá Carneiro

Porto, Portugal

latitude: 41-14N, longitude: 008-41W, altura: 69 m

Observação actual do tempo

O boletim foi feito há 25 minutos, às 01:00 UTC
Vento calmo
Temperatura 6°C
Humidade 100%
Pressão 1023 hPa
Visibilidade: 5000 m
neblina, bancos de nevoeiro

METAR: LPPR 130100Z 00000KT 5000 BR BCFG NSC 06/06 Q1023

Hora: 01:25 (01:25 UTC)

Previsão

O boletim foi feito há 1 hora e 55 minutos, às 23:30 UTC
Previsão válida de 13 às 00 UTC a 13 às 24 UTC
Vento 5 kt de este
Visibilidade 10 km ou mais
sem nuvens abaixo de 1500 metros e sem cumulonimbus
Probabilidade 30%
de 13 às 00 UTC a 13 às 06 UTC
Visibilidade: 5000 m
neblina
Tornando-se
de 13 às 12 UTC a 13 às 15 UTC
Vento 10 kt de nor-noroeste
Tornando-se
de 13 às 18 UTC a 13 às 21 UTC
Vento 5 kt de este

TAF: LPPR 122330Z 1300/1324 08005KT CAVOK PROB30 1300/1306 5000 BR NSC BECMG 1312/1315 34010KT BECMG 1318/1321 08005KT

Observações e previsões do tempo de mais de 4000 aeroportos (mensagens METAR e TAF).

As estações disponíveis são os pontos amarelos e vermelhos sobre o mapa.

Mova o rato sobre o mapa para ver o nome da estação.

Depois clique no ponto para visualizar as observações e previsões meteorológicas.

Para alterar o mapa : clique nos botões verdes com uma cruz preta para aumentar o zoom; no botão verde com uma pitada de zoom; ou nas setas verdes para mapas adjacentes.


METAR-TAF: